createdAt,value
2023-03-01T00:01:24.976Z,1017.35
2023-03-01T00:06:22.086Z,1017.20
2023-03-01T00:11:19.224Z,1017.21
2023-03-01T00:16:18.398Z,1017.14
2023-03-01T00:21:18.556Z,1017.15
2023-03-01T00:26:16.860Z,1017.16
2023-03-01T00:31:16.191Z,1017.09
2023-03-01T00:36:17.518Z,1017.02
2023-03-01T00:41:15.672Z,1017.11
2023-03-01T00:46:14.049Z,1017.10
2023-03-01T00:51:13.210Z,1017.09
2023-03-01T00:56:12.543Z,1016.99
2023-03-01T01:01:11.933Z,1016.92
2023-03-01T01:06:11.042Z,1016.80
2023-03-01T01:11:11.311Z,1016.78
2023-03-01T01:16:09.595Z,1016.67
2023-03-01T01:21:08.812Z,1016.63
2023-03-01T01:26:08.999Z,1016.58
2023-03-01T01:31:09.216Z,1016.57
2023-03-01T01:36:06.389Z,1016.48
2023-03-01T01:41:06.599Z,1016.41
2023-03-01T01:46:04.841Z,1016.51
2023-03-01T01:51:06.019Z,1016.50
2023-03-01T01:56:03.200Z,1016.36
2023-03-01T02:01:03.399Z,1016.43
2023-03-01T02:06:01.649Z,1016.28
2023-03-01T02:11:02.023Z,1016.28
2023-03-01T02:15:59.210Z,1016.34
2023-03-01T02:21:00.367Z,1016.23
2023-03-01T02:25:58.687Z,1016.27
2023-03-01T02:30:59.080Z,1016.28
2023-03-01T02:35:57.266Z,1016.18
2023-03-01T02:40:57.376Z,1016.17
2023-03-01T02:45:55.705Z,1016.11
2023-03-01T02:50:56.013Z,1016.00
2023-03-01T02:55:54.333Z,1015.92
2023-03-01T03:00:53.691Z,1015.94
2023-03-01T03:05:53.980Z,1015.94
2023-03-01T03:10:52.321Z,1015.96
2023-03-01T03:15:52.501Z,1015.94
2023-03-01T03:20:51.594Z,1015.91
2023-03-01T03:25:50.947Z,1015.92
2023-03-01T03:30:49.239Z,1015.86
2023-03-01T03:35:49.593Z,1015.78
2023-03-01T03:40:48.724Z,1015.89
2023-03-01T03:45:46.939Z,1015.86
2023-03-01T03:50:47.047Z,1015.83
2023-03-01T03:55:47.405Z,1015.89
2023-03-01T04:00:45.547Z,1015.90
2023-03-01T04:05:43.654Z,1015.90
2023-03-01T04:10:43.995Z,1015.85
2023-03-01T04:15:43.150Z,1015.92
2023-03-01T04:20:41.288Z,1015.82
2023-03-01T04:25:40.602Z,1015.85
2023-03-01T04:30:41.923Z,1015.93
2023-03-01T04:35:39.317Z,1015.91
2023-03-01T04:40:38.448Z,1015.84
2023-03-01T04:45:36.883Z,1015.85
2023-03-01T04:50:38.052Z,1015.86
2023-03-01T04:55:36.368Z,1015.76
2023-03-01T05:00:36.687Z,1015.80
2023-03-01T05:05:36.054Z,1015.72
2023-03-01T05:10:34.275Z,1015.61
2023-03-01T05:15:35.396Z,1015.61
2023-03-01T05:20:32.696Z,1015.57
2023-03-01T05:25:32.864Z,1015.60
2023-03-01T05:30:32.015Z,1015.59
2023-03-01T05:35:30.318Z,1015.55
2023-03-01T05:40:29.656Z,1015.49
2023-03-01T05:45:29.973Z,1015.44
2023-03-01T05:50:29.318Z,1015.40
2023-03-01T05:55:28.860Z,1015.37
2023-03-01T06:00:27.862Z,1015.35
2023-03-01T06:05:27.219Z,1015.35
2023-03-01T06:10:26.342Z,1015.37
2023-03-01T06:15:24.712Z,1015.33
2023-03-01T06:20:24.833Z,1015.36
2023-03-01T06:25:24.295Z,1015.40
2023-03-01T06:30:22.432Z,1015.37
2023-03-01T06:35:21.797Z,1015.43
2023-03-01T06:40:21.933Z,1015.37
2023-03-01T06:45:21.279Z,1015.35
2023-03-01T06:50:18.415Z,1015.38
2023-03-01T06:55:18.589Z,1015.42
2023-03-01T07:00:18.842Z,1015.38
2023-03-01T07:05:17.155Z,1015.40
2023-03-01T07:10:17.490Z,1015.39
2023-03-01T07:15:16.770Z,1015.41
2023-03-01T07:20:15.144Z,1015.45
2023-03-01T07:25:18.353Z,1015.47
2023-03-01T07:30:14.434Z,1015.39
2023-03-01T07:35:13.564Z,1015.37
2023-03-01T07:40:13.888Z,1015.37
2023-03-01T07:45:11.226Z,1015.34
2023-03-01T07:50:11.550Z,1015.29
2023-03-01T07:55:09.856Z,1015.29
2023-03-01T08:00:09.173Z,1015.21
2023-03-01T08:05:09.513Z,1015.23
2023-03-01T08:10:08.628Z,1015.20
2023-03-01T08:15:06.946Z,1015.19
2023-03-01T08:20:06.255Z,1015.23
2023-03-01T08:25:05.555Z,1015.20
2023-03-01T08:30:04.864Z,1015.21
2023-03-01T08:35:04.196Z,1015.19
2023-03-01T08:40:02.409Z,1015.13
2023-03-01T08:45:03.512Z,1015.09
2023-03-01T08:50:01.834Z,1015.06
2023-03-01T08:55:02.197Z,1015.02
2023-03-01T09:00:00.289Z,1015.04
2023-03-01T09:05:00.615Z,1014.96
2023-03-01T09:09:58.910Z,1014.89
2023-03-01T09:15:00.223Z,1014.93
2023-03-01T09:19:57.538Z,1014.87
2023-03-01T09:24:57.909Z,1014.82
2023-03-01T09:29:57.208Z,1014.74
2023-03-01T09:34:55.483Z,1014.62
2023-03-01T09:39:56.772Z,1014.66
2023-03-01T09:44:54.284Z,1014.66
2023-03-01T09:49:53.398Z,1014.60
2023-03-01T09:54:54.761Z,1014.57
2023-03-01T09:59:52.947Z,1014.57
2023-03-01T10:04:52.354Z,1014.56
2023-03-01T10:09:50.399Z,1014.62
2023-03-01T10:14:50.611Z,1014.58
2023-03-01T10:19:49.709Z,1014.59
2023-03-01T10:24:49.172Z,1014.50
2023-03-01T10:29:48.309Z,1014.43
2023-03-01T10:34:46.688Z,1014.33
2023-03-01T10:39:45.886Z,1014.32
2023-03-01T10:44:45.023Z,1014.26
2023-03-01T10:49:45.339Z,1014.17
2023-03-01T10:54:43.660Z,1014.15
2023-03-01T10:59:42.983Z,1014.11
2023-03-01T11:04:44.446Z,1014.04
2023-03-01T11:09:41.539Z,1014.19
2023-03-01T11:14:40.840Z,1014.08
2023-03-01T11:19:40.315Z,1013.99
2023-03-01T11:24:40.360Z,1013.92
2023-03-01T11:29:48.413Z,1013.93
2023-03-01T11:34:39.882Z,1013.89
2023-03-01T11:39:37.211Z,1013.81
2023-03-01T11:44:37.118Z,1013.73
2023-03-01T11:49:35.420Z,1013.63
2023-03-01T11:54:34.721Z,1013.58
2023-03-01T11:59:35.045Z,1013.58
2023-03-01T12:04:33.417Z,1013.59
2023-03-01T12:09:32.561Z,1013.56
2023-03-01T12:14:32.710Z,1013.47
2023-03-01T12:19:32.029Z,1013.48
2023-03-01T12:24:30.331Z,1013.40
2023-03-01T12:29:30.677Z,1013.40
2023-03-01T12:34:29.006Z,1013.25
2023-03-01T12:39:29.218Z,1013.28
2023-03-01T12:44:27.832Z,1013.08
2023-03-01T12:49:27.636Z,1013.04
2023-03-01T12:54:26.779Z,1013.12
2023-03-01T12:59:23.936Z,1013.15
2023-03-01T13:04:26.146Z,1013.03
2023-03-01T13:09:23.329Z,1013.05
2023-03-01T13:14:22.452Z,1013.04
2023-03-01T13:19:22.776Z,1013.12
2023-03-01T13:24:22.061Z,1013.16
2023-03-01T13:29:20.396Z,1013.23
2023-03-01T13:34:19.487Z,1013.29
2023-03-01T13:39:18.827Z,1013.18
2023-03-01T13:44:17.977Z,1013.20
2023-03-01T13:49:18.382Z,1012.86
2023-03-01T13:54:16.325Z,1013.04
2023-03-01T13:59:15.467Z,1013.00
2023-03-01T14:04:14.674Z,1012.97
2023-03-01T14:09:13.805Z,1012.89
2023-03-01T14:14:14.037Z,1012.90
2023-03-01T14:19:15.940Z,1012.91
2023-03-01T14:24:13.403Z,1012.96
2023-03-01T14:29:10.517Z,1012.90
2023-03-01T14:34:09.656Z,1012.90
2023-03-01T14:39:08.978Z,1012.81
2023-03-01T14:44:08.199Z,1012.78
2023-03-01T14:49:07.534Z,1012.79
2023-03-01T14:54:06.854Z,1012.86
2023-03-01T14:59:07.209Z,1012.84
2023-03-01T15:04:05.376Z,1012.81
2023-03-01T15:09:05.469Z,1012.83
2023-03-01T15:14:03.772Z,1012.81
2023-03-01T15:19:03.077Z,1012.78
2023-03-01T15:24:02.383Z,1012.89
2023-03-01T15:29:02.691Z,1012.87
2023-03-01T15:34:01.587Z,1012.90
2023-03-01T15:39:00.271Z,1012.88
2023-03-01T15:43:59.579Z,1012.89
2023-03-01T15:48:59.887Z,1012.89
2023-03-01T15:54:00.287Z,1012.84
2023-03-01T15:58:58.751Z,1012.87
2023-03-01T16:03:57.714Z,1012.91
2023-03-01T16:08:55.845Z,1012.88
2023-03-01T16:13:56.231Z,1012.89
2023-03-01T16:18:55.649Z,1012.96
2023-03-01T16:23:53.429Z,1012.93
2023-03-01T16:28:52.592Z,1012.98
2023-03-01T16:33:52.847Z,1012.87
2023-03-01T16:38:52.156Z,1013.03
2023-03-01T16:43:51.338Z,1013.18
2023-03-01T16:48:49.481Z,1013.17
2023-03-01T16:53:48.821Z,1013.14
2023-03-01T16:58:48.783Z,1013.13
2023-03-01T17:03:46.931Z,1013.14
2023-03-01T17:08:45.302Z,1013.26
2023-03-01T17:13:45.323Z,1013.23
2023-03-01T17:18:44.450Z,1013.30
2023-03-01T17:23:44.077Z,1013.32
2023-03-01T17:28:43.061Z,1013.28
2023-03-01T17:33:43.291Z,1013.27
2023-03-01T17:38:42.126Z,1013.25
2023-03-01T17:43:42.925Z,1013.34
2023-03-01T17:48:40.171Z,1013.41
2023-03-01T17:53:38.506Z,1013.45
2023-03-01T17:58:39.578Z,1013.47
2023-03-01T18:03:37.789Z,1013.54
2023-03-01T18:08:36.948Z,1013.57
2023-03-01T18:13:36.131Z,1013.51
2023-03-01T18:18:34.894Z,1013.53
2023-03-01T18:23:36.601Z,1013.53
2023-03-01T18:28:37.866Z,1013.73
2023-03-01T18:33:34.149Z,1013.58
2023-03-01T18:38:32.438Z,1013.54
2023-03-01T18:43:31.892Z,1013.44
2023-03-01T18:48:32.158Z,1013.34
2023-03-01T18:53:31.197Z,1013.19
2023-03-01T18:58:30.524Z,1013.23
2023-03-01T19:03:28.815Z,1013.20
2023-03-01T19:08:28.807Z,1013.17
2023-03-01T19:13:28.457Z,1013.14
2023-03-01T19:18:28.616Z,1013.11
2023-03-01T19:23:25.922Z,1013.00
2023-03-01T19:28:25.111Z,1013.11
2023-03-01T19:33:24.012Z,1013.04
2023-03-01T19:38:24.719Z,1013.02
2023-03-01T19:43:21.443Z,1013.06
2023-03-01T19:48:21.946Z,1012.93
2023-03-01T19:53:21.106Z,1012.93
2023-03-01T19:58:19.264Z,1012.88
2023-03-01T20:03:21.389Z,1012.90
2023-03-01T20:08:17.744Z,1012.90
2023-03-01T20:13:18.584Z,1012.82
2023-03-01T20:18:17.172Z,1012.83
2023-03-01T20:23:18.331Z,1012.79
2023-03-01T20:28:15.750Z,1012.71
2023-03-01T20:33:14.849Z,1012.62
2023-03-01T20:38:15.101Z,1012.72
2023-03-01T20:43:14.452Z,1012.66
2023-03-01T20:48:13.660Z,1012.66
2023-03-01T20:53:11.691Z,1012.48
2023-03-01T20:58:10.697Z,1012.51
2023-03-01T21:03:13.103Z,1012.44
2023-03-01T21:08:10.114Z,1012.39
2023-03-01T21:13:09.442Z,1012.39
2023-03-01T21:18:07.763Z,1012.33
2023-03-01T21:23:06.921Z,1012.28
2023-03-01T21:28:06.073Z,1012.22
2023-03-01T21:33:05.475Z,1012.13
2023-03-01T21:38:04.630Z,1012.10
2023-03-01T21:43:03.742Z,1012.10
2023-03-01T21:48:03.035Z,1012.18
2023-03-01T21:53:03.314Z,1012.04
2023-03-01T21:58:01.615Z,1012.03
2023-03-01T22:03:01.976Z,1011.96
2023-03-01T22:08:00.130Z,1011.81
2023-03-01T22:12:59.436Z,1011.79
2023-03-01T22:17:58.770Z,1011.73
2023-03-01T22:22:59.084Z,1011.82
2023-03-01T22:28:00.510Z,1011.77
2023-03-01T22:32:57.681Z,1011.75
2023-03-01T22:37:56.793Z,1011.77
2023-03-01T22:42:55.083Z,1011.67
2023-03-01T22:47:54.409Z,1011.66
2023-03-01T22:52:53.694Z,1011.72
2023-03-01T22:57:52.999Z,1011.74
2023-03-01T23:02:53.385Z,1011.66
2023-03-01T23:07:51.535Z,1011.71
2023-03-01T23:12:51.660Z,1011.60
2023-03-01T23:17:49.953Z,1011.63
2023-03-01T23:22:50.259Z,1011.59
2023-03-01T23:27:49.612Z,1011.56
2023-03-01T23:32:47.716Z,1011.50
2023-03-01T23:37:47.035Z,1011.47
2023-03-01T23:42:46.218Z,1011.43
2023-03-01T23:47:45.346Z,1011.47
2023-03-01T23:52:44.503Z,1011.40
2023-03-01T23:57:43.773Z,1011.44
